sensor_id;sensor_type;location;lat;lon;timestamp;temperature;humidity
52267;DHT22;38223;50.940;4.034;2023-02-18T00:01:10;12.40;99.90
52267;DHT22;38223;50.940;4.034;2023-02-18T00:03:38;12.40;99.90
52267;DHT22;38223;50.940;4.034;2023-02-18T00:06:14;12.50;99.90
52267;DHT22;38223;50.940;4.034;2023-02-18T00:08:45;12.40;99.90
52267;DHT22;38223;50.940;4.034;2023-02-18T00:11:14;12.40;99.90
52267;DHT22;38223;50.940;4.034;2023-02-18T00:13:43;12.40;99.90
52267;DHT22;38223;50.940;4.034;2023-02-18T00:16:13;12.40;99.90
52267;DHT22;38223;50.940;4.034;2023-02-18T00:18:41;12.40;99.90
52267;DHT22;38223;50.940;4.034;2023-02-18T00:21:09;12.40;99.90
52267;DHT22;38223;50.940;4.034;2023-02-18T00:23:37;12.40;99.90
52267;DHT22;38223;50.940;4.034;2023-02-18T00:26:13;12.40;99.90
52267;DHT22;38223;50.940;4.034;2023-02-18T00:28:44;12.40;99.90
52267;DHT22;38223;50.940;4.034;2023-02-18T00:31:19;12.30;99.90
52267;DHT22;38223;50.940;4.034;2023-02-18T00:33:46;12.30;99.90
52267;DHT22;38223;50.940;4.034;2023-02-18T00:36:16;12.30;99.90
52267;DHT22;38223;50.940;4.034;2023-02-18T00:38:49;12.20;99.90
52267;DHT22;38223;50.940;4.034;2023-02-18T00:41:21;12.20;99.90
52267;DHT22;38223;50.940;4.034;2023-02-18T00:43:48;12.30;99.90
52267;DHT22;38223;50.940;4.034;2023-02-18T00:46:16;12.40;99.90
52267;DHT22;38223;50.940;4.034;2023-02-18T00:48:46;12.30;99.90
52267;DHT22;38223;50.940;4.034;2023-02-18T00:51:19;12.10;99.90
52267;DHT22;38223;50.940;4.034;2023-02-18T00:53:46;12.30;99.90
52267;DHT22;38223;50.940;4.034;2023-02-18T00:56:14;12.30;99.90
52267;DHT22;38223;50.940;4.034;2023-02-18T00:58:44;12.30;99.90
52267;DHT22;38223;50.940;4.034;2023-02-18T01:01:13;12.20;99.90
52267;DHT22;38223;50.940;4.034;2023-02-18T01:03:42;12.10;99.90
52267;DHT22;38223;50.940;4.034;2023-02-18T01:06:11;12.20;99.90
52267;DHT22;38223;50.940;4.034;2023-02-18T01:08:40;12.20;99.90
52267;DHT22;38223;50.940;4.034;2023-02-18T01:11:16;12.10;99.90
52267;DHT22;38223;50.940;4.034;2023-02-18T01:13:47;12.00;99.90
52267;DHT22;38223;50.940;4.034;2023-02-18T01:16:15;11.90;99.90
52267;DHT22;38223;50.940;4.034;2023-02-18T01:18:43;12.00;99.90
52267;DHT22;38223;50.940;4.034;2023-02-18T01:21:11;12.10;99.90
52267;DHT22;38223;50.940;4.034;2023-02-18T01:23:40;12.20;99.90
52267;DHT22;38223;50.940;4.034;2023-02-18T01:26:12;12.30;99.90
52267;DHT22;38223;50.940;4.034;2023-02-18T01:28:41;12.20;99.90
52267;DHT22;38223;50.940;4.034;2023-02-18T01:31:11;12.10;99.90
52267;DHT22;38223;50.940;4.034;2023-02-18T01:33:43;12.10;99.90
52267;DHT22;38223;50.940;4.034;2023-02-18T01:36:11;12.10;99.90
52267;DHT22;38223;50.940;4.034;2023-02-18T01:38:42;12.10;99.90
52267;DHT22;38223;50.940;4.034;2023-02-18T01:41:15;12.10;99.90
52267;DHT22;38223;50.940;4.034;2023-02-18T01:43:44;12.10;99.90
52267;DHT22;38223;50.940;4.034;2023-02-18T01:46:23;12.10;99.90
52267;DHT22;38223;50.940;4.034;2023-02-18T01:48:54;12.20;99.90
52267;DHT22;38223;50.940;4.034;2023-02-18T01:51:31;12.00;99.90
52267;DHT22;38223;50.940;4.034;2023-02-18T01:54:08;12.00;99.90
52267;DHT22;38223;50.940;4.034;2023-02-18T01:56:42;12.00;99.90
52267;DHT22;38223;50.940;4.034;2023-02-18T01:59:11;11.90;99.90
52267;DHT22;38223;50.940;4.034;2023-02-18T02:01:44;11.80;99.90
52267;DHT22;38223;50.940;4.034;2023-02-18T02:04:16;11.80;99.90
52267;DHT22;38223;50.940;4.034;2023-02-18T02:06:53;11.90;99.90
52267;DHT22;38223;50.940;4.034;2023-02-18T02:09:28;11.90;99.90
52267;DHT22;38223;50.940;4.034;2023-02-18T02:17:59;11.80;99.90
52267;DHT22;38223;50.940;4.034;2023-02-18T02:20:56;11.70;99.90
52267;DHT22;38223;50.940;4.034;2023-02-18T02:35:11;11.50;99.90
52267;DHT22;38223;50.940;4.034;2023-02-18T02:37:54;11.50;99.90
52267;DHT22;38223;50.940;4.034;2023-02-18T02:40:34;11.50;99.90
52267;DHT22;38223;50.940;4.034;2023-02-18T02:43:30;11.60;99.90
52267;DHT22;38223;50.940;4.034;2023-02-18T02:52:12;11.50;99.90
52267;DHT22;38223;50.940;4.034;2023-02-18T02:54:43;11.50;99.90
52267;DHT22;38223;50.940;4.034;2023-02-18T02:59:47;11.40;99.90
52267;DHT22;38223;50.940;4.034;2023-02-18T03:08:28;11.60;99.90
52267;DHT22;38223;50.940;4.034;2023-02-18T03:11:03;11.50;99.90
52267;DHT22;38223;50.940;4.034;2023-02-18T03:19:06;11.50;99.90
52267;DHT22;38223;50.940;4.034;2023-02-18T03:21:39;11.40;99.90
52267;DHT22;38223;50.940;4.034;2023-02-18T03:24:17;11.40;99.90
52267;DHT22;38223;50.940;4.034;2023-02-18T03:26:46;11.40;99.90
52267;DHT22;38223;50.940;4.034;2023-02-18T03:29:21;11.40;99.90
52267;DHT22;38223;50.940;4.034;2023-02-18T03:31:59;11.40;99.90
52267;DHT22;38223;50.940;4.034;2023-02-18T03:34:33;11.40;99.90
52267;DHT22;38223;50.940;4.034;2023-02-18T03:37:03;11.40;99.90
52267;DHT22;38223;50.940;4.034;2023-02-18T03:39:33;11.40;99.90
52267;DHT22;38223;50.940;4.034;2023-02-18T03:42:05;11.50;99.90
52267;DHT22;38223;50.940;4.034;2023-02-18T03:44:36;11.50;99.90
52267;DHT22;38223;50.940;4.034;2023-02-18T03:47:03;11.50;99.90
52267;DHT22;38223;50.940;4.034;2023-02-18T03:49:31;11.50;99.90
52267;DHT22;38223;50.940;4.034;2023-02-18T03:52:02;11.40;99.90
52267;DHT22;38223;50.940;4.034;2023-02-18T03:54:38;11.40;99.90
52267;DHT22;38223;50.940;4.034;2023-02-18T03:57:06;11.40;99.90
52267;DHT22;38223;50.940;4.034;2023-02-18T03:59:41;11.40;99.90
52267;DHT22;38223;50.940;4.034;2023-02-18T04:02:15;11.30;99.90
52267;DHT22;38223;50.940;4.034;2023-02-18T04:04:50;11.40;99.90
52267;DHT22;38223;50.940;4.034;2023-02-18T04:07:19;11.40;99.90
52267;DHT22;38223;50.940;4.034;2023-02-18T04:09:55;11.40;99.90
52267;DHT22;38223;50.940;4.034;2023-02-18T04:12:23;11.40;99.90
52267;DHT22;38223;50.940;4.034;2023-02-18T04:14:59;11.40;99.90
52267;DHT22;38223;50.940;4.034;2023-02-18T04:17:28;11.50;99.90
52267;DHT22;38223;50.940;4.034;2023-02-18T04:20:00;11.50;99.90
52267;DHT22;38223;50.940;4.034;2023-02-18T04:22:31;11.40;99.90
52267;DHT22;38223;50.940;4.034;2023-02-18T04:25:03;11.40;99.90
52267;DHT22;38223;50.940;4.034;2023-02-18T04:27:37;11.40;99.90
52267;DHT22;38223;50.940;4.034;2023-02-18T04:30:11;11.50;99.90
52267;DHT22;38223;50.940;4.034;2023-02-18T04:32:44;11.50;99.90
52267;DHT22;38223;50.940;4.034;2023-02-18T04:35:19;11.50;99.90
52267;DHT22;38223;50.940;4.034;2023-02-18T04:37:48;11.40;99.90
52267;DHT22;38223;50.940;4.034;2023-02-18T04:40:21;11.40;99.90
52267;DHT22;38223;50.940;4.034;2023-02-18T04:42:51;11.40;99.90
52267;DHT22;38223;50.940;4.034;2023-02-18T04:45:21;11.30;99.90
52267;DHT22;38223;50.940;4.034;2023-02-18T04:47:52;11.30;99.90
52267;DHT22;38223;50.940;4.034;2023-02-18T04:50:28;11.30;99.90
52267;DHT22;38223;50.940;4.034;2023-02-18T04:52:57;11.30;99.90
52267;DHT22;38223;50.940;4.034;2023-02-18T04:55:27;11.30;99.90
52267;DHT22;38223;50.940;4.034;2023-02-18T04:57:59;11.10;99.90
52267;DHT22;38223;50.940;4.034;2023-02-18T05:00:32;11.10;99.90
52267;DHT22;38223;50.940;4.034;2023-02-18T05:03:03;11.10;99.90
52267;DHT22;38223;50.940;4.034;2023-02-18T05:05:34;11.10;99.90
52267;DHT22;38223;50.940;4.034;2023-02-18T05:10:52;11.00;99.90
52267;DHT22;38223;50.940;4.034;2023-02-18T05:13:20;11.00;99.90
52267;DHT22;38223;50.940;4.034;2023-02-18T05:15:54;11.00;99.90
52267;DHT22;38223;50.940;4.034;2023-02-18T05:18:28;11.00;99.90
52267;DHT22;38223;50.940;4.034;2023-02-18T05:21:03;11.10;99.90
52267;DHT22;38223;50.940;4.034;2023-02-18T05:23:34;11.10;99.90
52267;DHT22;38223;50.940;4.034;2023-02-18T05:26:06;11.10;99.90
52267;DHT22;38223;50.940;4.034;2023-02-18T05:28:41;11.10;99.90
52267;DHT22;38223;50.940;4.034;2023-02-18T05:31:09;11.10;99.90
52267;DHT22;38223;50.940;4.034;2023-02-18T05:33:37;11.10;99.90
52267;DHT22;38223;50.940;4.034;2023-02-18T05:36:07;11.10;99.90
52267;DHT22;38223;50.940;4.034;2023-02-18T05:38:40;11.10;99.90
52267;DHT22;38223;50.940;4.034;2023-02-18T05:41:08;11.00;99.90
52267;DHT22;38223;50.940;4.034;2023-02-18T05:43:43;11.00;99.90
52267;DHT22;38223;50.940;4.034;2023-02-18T05:46:28;10.90;99.90
52267;DHT22;38223;50.940;4.034;2023-02-18T05:48:58;11.00;99.90
52267;DHT22;38223;50.940;4.034;2023-02-18T05:51:29;10.90;99.90
52267;DHT22;38223;50.940;4.034;2023-02-18T05:54:02;10.80;99.90
52267;DHT22;38223;50.940;4.034;2023-02-18T05:56:38;10.90;99.90
52267;DHT22;38223;50.940;4.034;2023-02-18T05:59:13;10.90;99.90
52267;DHT22;38223;50.940;4.034;2023-02-18T06:01:41;11.00;99.90
52267;DHT22;38223;50.940;4.034;2023-02-18T06:04:12;11.00;99.90
52267;DHT22;38223;50.940;4.034;2023-02-18T06:06:46;11.00;99.90
52267;DHT22;38223;50.940;4.034;2023-02-18T06:09:18;11.00;99.90
52267;DHT22;38223;50.940;4.034;2023-02-18T06:11:49;11.00;99.90
52267;DHT22;38223;50.940;4.034;2023-02-18T06:14:21;11.00;99.90
52267;DHT22;38223;50.940;4.034;2023-02-18T06:16:48;11.00;99.90
52267;DHT22;38223;50.940;4.034;2023-02-18T06:19:20;11.10;99.90
52267;DHT22;38223;50.940;4.034;2023-02-18T06:21:51;11.10;99.90
52267;DHT22;38223;50.940;4.034;2023-02-18T06:24:23;11.10;99.90
52267;DHT22;38223;50.940;4.034;2023-02-18T06:26:53;11.10;99.90
52267;DHT22;38223;50.940;4.034;2023-02-18T06:29:29;11.00;99.90
52267;DHT22;38223;50.940;4.034;2023-02-18T06:32:16;10.90;99.90
52267;DHT22;38223;50.940;4.034;2023-02-18T06:34:51;10.90;99.90
52267;DHT22;38223;50.940;4.034;2023-02-18T06:37:22;10.90;99.90
52267;DHT22;38223;50.940;4.034;2023-02-18T06:39:50;11.00;99.90
52267;DHT22;38223;50.940;4.034;2023-02-18T06:42:20;10.90;99.90
52267;DHT22;38223;50.940;4.034;2023-02-18T06:44:50;11.00;99.90
52267;DHT22;38223;50.940;4.034;2023-02-18T06:47:21;11.00;99.90
52267;DHT22;38223;50.940;4.034;2023-02-18T06:49:57;11.00;99.90
52267;DHT22;38223;50.940;4.034;2023-02-18T06:52:26;11.00;99.90
52267;DHT22;38223;50.940;4.034;2023-02-18T06:55:07;11.00;99.90
52267;DHT22;38223;50.940;4.034;2023-02-18T06:57:36;11.00;99.90
52267;DHT22;38223;50.940;4.034;2023-02-18T07:00:08;11.00;99.90
52267;DHT22;38223;50.940;4.034;2023-02-18T07:02:39;11.00;99.90
52267;DHT22;38223;50.940;4.034;2023-02-18T07:05:13;11.10;99.90
52267;DHT22;38223;50.940;4.034;2023-02-18T07:07:48;11.00;99.90
52267;DHT22;38223;50.940;4.034;2023-02-18T07:10:21;11.10;99.90
52267;DHT22;38223;50.940;4.034;2023-02-18T07:12:52;11.10;99.90
52267;DHT22;38223;50.940;4.034;2023-02-18T07:15:24;11.10;99.90
52267;DHT22;38223;50.940;4.034;2023-02-18T07:18:00;11.10;99.90
52267;DHT22;38223;50.940;4.034;2023-02-18T07:20:33;11.10;99.90
52267;DHT22;38223;50.940;4.034;2023-02-18T07:23:08;11.10;99.90
52267;DHT22;38223;50.940;4.034;2023-02-18T07:25:39;11.10;99.90
52267;DHT22;38223;50.940;4.034;2023-02-18T07:28:09;11.10;99.90
52267;DHT22;38223;50.940;4.034;2023-02-18T07:30:39;11.20;99.90
52267;DHT22;38223;50.940;4.034;2023-02-18T07:33:09;11.20;99.90
52267;DHT22;38223;50.940;4.034;2023-02-18T07:35:39;11.20;99.90
52267;DHT22;38223;50.940;4.034;2023-02-18T07:38:15;11.20;99.90
52267;DHT22;38223;50.940;4.034;2023-02-18T07:40:45;11.20;99.90
52267;DHT22;38223;50.940;4.034;2023-02-18T07:46:09;11.20;99.90
52267;DHT22;38223;50.940;4.034;2023-02-18T07:48:42;11.30;99.90
52267;DHT22;38223;50.940;4.034;2023-02-18T07:51:13;11.40;99.90
52267;DHT22;38223;50.940;4.034;2023-02-18T07:53:44;11.40;99.90
52267;DHT22;38223;50.940;4.034;2023-02-18T07:56:16;11.40;99.90
52267;DHT22;38223;50.940;4.034;2023-02-18T07:58:48;11.20;99.90
52267;DHT22;38223;50.940;4.034;2023-02-18T08:01:22;11.20;99.90
52267;DHT22;38223;50.940;4.034;2023-02-18T08:03:54;11.10;99.90
52267;DHT22;38223;50.940;4.034;2023-02-18T08:06:30;11.10;99.90
52267;DHT22;38223;50.940;4.034;2023-02-18T08:08:58;11.20;99.90
52267;DHT22;38223;50.940;4.034;2023-02-18T08:11:31;11.20;99.90
52267;DHT22;38223;50.940;4.034;2023-02-18T08:14:03;11.20;99.90
52267;DHT22;38223;50.940;4.034;2023-02-18T08:16:31;11.40;99.90
52267;DHT22;38223;50.940;4.034;2023-02-18T08:19:03;11.40;99.90
52267;DHT22;38223;50.940;4.034;2023-02-18T08:21:35;11.40;99.90
52267;DHT22;38223;50.940;4.034;2023-02-18T08:24:08;11.30;99.90
52267;DHT22;38223;50.940;4.034;2023-02-18T08:26:43;11.30;99.90
52267;DHT22;38223;50.940;4.034;2023-02-18T08:29:13;11.40;99.90
52267;DHT22;38223;50.940;4.034;2023-02-18T08:31:43;11.20;99.90
52267;DHT22;38223;50.940;4.034;2023-02-18T08:34:15;11.30;99.90
52267;DHT22;38223;50.940;4.034;2023-02-18T08:36:47;11.30;99.90
52267;DHT22;38223;50.940;4.034;2023-02-18T08:39:21;11.40;99.90
52267;DHT22;38223;50.940;4.034;2023-02-18T08:41:53;11.30;99.90
52267;DHT22;38223;50.940;4.034;2023-02-18T08:44:22;11.30;99.90
52267;DHT22;38223;50.940;4.034;2023-02-18T08:46:54;11.30;99.90
52267;DHT22;38223;50.940;4.034;2023-02-18T08:49:27;11.40;99.90
52267;DHT22;38223;50.940;4.034;2023-02-18T08:51:58;11.50;99.90
52267;DHT22;38223;50.940;4.034;2023-02-18T08:54:36;11.60;99.90
52267;DHT22;38223;50.940;4.034;2023-02-18T08:57:05;11.60;99.90
52267;DHT22;38223;50.940;4.034;2023-02-18T08:59:41;11.60;99.90
52267;DHT22;38223;50.940;4.034;2023-02-18T09:02:16;11.70;99.90
52267;DHT22;38223;50.940;4.034;2023-02-18T09:07:37;11.70;99.90
52267;DHT22;38223;50.940;4.034;2023-02-18T09:10:06;11.80;99.90
52267;DHT22;38223;50.940;4.034;2023-02-18T09:12:37;11.80;99.90
52267;DHT22;38223;50.940;4.034;2023-02-18T09:15:11;11.70;99.90
52267;DHT22;38223;50.940;4.034;2023-02-18T09:17:42;11.70;99.90
52267;DHT22;38223;50.940;4.034;2023-02-18T09:20:14;11.70;99.90
52267;DHT22;38223;50.940;4.034;2023-02-18T09:22:45;11.80;99.90
52267;DHT22;38223;50.940;4.034;2023-02-18T09:25:19;11.80;99.90
52267;DHT22;38223;50.940;4.034;2023-02-18T09:27:47;11.80;99.90
52267;DHT22;38223;50.940;4.034;2023-02-18T09:30:16;12.00;99.90
52267;DHT22;38223;50.940;4.034;2023-02-18T09:32:47;11.90;99.90
52267;DHT22;38223;50.940;4.034;2023-02-18T09:35:22;11.80;99.90
52267;DHT22;38223;50.940;4.034;2023-02-18T09:37:52;11.80;99.90
52267;DHT22;38223;50.940;4.034;2023-02-18T09:40:28;11.90;99.90
52267;DHT22;38223;50.940;4.034;2023-02-18T09:42:59;11.90;99.90
52267;DHT22;38223;50.940;4.034;2023-02-18T09:45:32;11.90;99.90
52267;DHT22;38223;50.940;4.034;2023-02-18T09:48:04;12.00;99.90
52267;DHT22;38223;50.940;4.034;2023-02-18T09:50:37;12.10;99.90
52267;DHT22;38223;50.940;4.034;2023-02-18T09:53:09;12.10;99.90
52267;DHT22;38223;50.940;4.034;2023-02-18T09:55:41;12.00;99.90
52267;DHT22;38223;50.940;4.034;2023-02-18T09:58:20;12.00;99.90
52267;DHT22;38223;50.940;4.034;2023-02-18T10:04:01;12.00;99.90
52267;DHT22;38223;50.940;4.034;2023-02-18T10:06:38;11.90;99.90
52267;DHT22;38223;50.940;4.034;2023-02-18T10:09:37;11.90;99.90
52267;DHT22;38223;50.940;4.034;2023-02-18T10:12:16;11.90;99.90
52267;DHT22;38223;50.940;4.034;2023-02-18T10:14:51;11.90;99.90
52267;DHT22;38223;50.940;4.034;2023-02-18T10:17:24;12.10;99.90
52267;DHT22;38223;50.940;4.034;2023-02-18T10:19:57;12.20;99.90
52267;DHT22;38223;50.940;4.034;2023-02-18T10:22:32;12.10;99.90
52267;DHT22;38223;50.940;4.034;2023-02-18T10:25:07;12.20;99.90
52267;DHT22;38223;50.940;4.034;2023-02-18T10:27:43;12.10;99.90
52267;DHT22;38223;50.940;4.034;2023-02-18T10:30:32;12.20;99.90
52267;DHT22;38223;50.940;4.034;2023-02-18T10:33:16;12.20;99.90
52267;DHT22;38223;50.940;4.034;2023-02-18T10:35:43;12.10;99.90
52267;DHT22;38223;50.940;4.034;2023-02-18T10:38:16;12.10;99.90
52267;DHT22;38223;50.940;4.034;2023-02-18T10:44:00;12.20;99.90
52267;DHT22;38223;50.940;4.034;2023-02-18T10:51:55;12.10;99.90
52267;DHT22;38223;50.940;4.034;2023-02-18T10:54:47;12.20;99.90
52267;DHT22;38223;50.940;4.034;2023-02-18T10:57:04;12.20;99.90
52267;DHT22;38223;50.940;4.034;2023-02-18T10:59:36;12.20;99.90
52267;DHT22;38223;50.940;4.034;2023-02-18T11:02:17;12.20;99.90
52267;DHT22;38223;50.940;4.034;2023-02-18T11:04:53;12.20;99.90
52267;DHT22;38223;50.940;4.034;2023-02-18T11:07:33;12.20;99.90
52267;DHT22;38223;50.940;4.034;2023-02-18T11:10:18;12.20;99.90
52267;DHT22;38223;50.940;4.034;2023-02-18T11:15:24;12.30;99.90
52267;DHT22;38223;50.940;4.034;2023-02-18T11:18:45;12.20;99.90
52267;DHT22;38223;50.940;4.034;2023-02-18T11:20:35;12.10;99.90
52267;DHT22;38223;50.940;4.034;2023-02-18T11:23:21;12.20;99.90
52267;DHT22;38223;50.940;4.034;2023-02-18T11:26:06;12.30;99.90
52267;DHT22;38223;50.940;4.034;2023-02-18T11:28:49;12.20;99.90
52267;DHT22;38223;50.940;4.034;2023-02-18T11:31:28;12.30;99.90
52267;DHT22;38223;50.940;4.034;2023-02-18T11:34:02;12.40;99.90
52267;DHT22;38223;50.940;4.034;2023-02-18T11:36:36;12.40;99.90
52267;DHT22;38223;50.940;4.034;2023-02-18T11:39:22;12.50;99.90
52267;DHT22;38223;50.940;4.034;2023-02-18T11:42:00;12.60;99.90
52267;DHT22;38223;50.940;4.034;2023-02-18T11:44:37;12.60;99.90
52267;DHT22;38223;50.940;4.034;2023-02-18T11:49:44;12.70;99.90
52267;DHT22;38223;50.940;4.034;2023-02-18T11:52:19;12.80;99.90
52267;DHT22;38223;50.940;4.034;2023-02-18T11:57:34;12.70;99.90
52267;DHT22;38223;50.940;4.034;2023-02-18T12:00:15;12.70;99.90
52267;DHT22;38223;50.940;4.034;2023-02-18T12:02:42;12.70;99.90
52267;DHT22;38223;50.940;4.034;2023-02-18T12:05:20;12.70;99.90
52267;DHT22;38223;50.940;4.034;2023-02-18T12:08:16;12.70;99.90
52267;DHT22;38223;50.940;4.034;2023-02-18T12:11:03;12.70;99.90
52267;DHT22;38223;50.940;4.034;2023-02-18T12:13:47;12.80;99.90
52267;DHT22;38223;50.940;4.034;2023-02-18T12:16:31;12.70;99.90
52267;DHT22;38223;50.940;4.034;2023-02-18T12:19:12;12.70;99.90
52267;DHT22;38223;50.940;4.034;2023-02-18T12:27:38;12.70;99.90
52267;DHT22;38223;50.940;4.034;2023-02-18T12:33:14;12.70;99.90
52267;DHT22;38223;50.940;4.034;2023-02-18T12:38:35;12.50;99.90
52267;DHT22;38223;50.940;4.034;2023-02-18T12:41:43;12.40;99.90
52267;DHT22;38223;50.940;4.034;2023-02-18T12:47:26;12.40;99.90
52267;DHT22;38223;50.940;4.034;2023-02-18T12:55:59;12.20;99.90
52267;DHT22;38223;50.940;4.034;2023-02-18T12:58:59;12.20;99.90
52267;DHT22;38223;50.940;4.034;2023-02-18T13:07:33;12.30;99.90
52267;DHT22;38223;50.940;4.034;2023-02-18T13:10:23;12.30;99.90
52267;DHT22;38223;50.940;4.034;2023-02-18T13:15:46;12.10;99.90
52267;DHT22;38223;50.940;4.034;2023-02-18T13:18:37;12.10;99.90
52267;DHT22;38223;50.940;4.034;2023-02-18T13:21:06;12.10;99.90
52267;DHT22;38223;50.940;4.034;2023-02-18T13:23:55;11.90;99.90
52267;DHT22;38223;50.940;4.034;2023-02-18T13:26:30;11.90;99.90
52267;DHT22;38223;50.940;4.034;2023-02-18T13:34:44;11.90;99.90
52267;DHT22;38223;50.940;4.034;2023-02-18T13:37:17;12.10;99.90
52267;DHT22;38223;50.940;4.034;2023-02-18T13:39:50;12.20;99.90
52267;DHT22;38223;50.940;4.034;2023-02-18T13:42:40;12.10;99.90
52267;DHT22;38223;50.940;4.034;2023-02-18T13:45:02;12.10;99.90
52267;DHT22;38223;50.940;4.034;2023-02-18T13:47:46;12.10;99.90
52267;DHT22;38223;50.940;4.034;2023-02-18T13:50:32;12.10;99.90
52267;DHT22;38223;50.940;4.034;2023-02-18T13:53:18;12.00;99.90
52267;DHT22;38223;50.940;4.034;2023-02-18T13:56:25;12.10;99.90
52267;DHT22;38223;50.940;4.034;2023-02-18T13:58:32;12.10;99.90
52267;DHT22;38223;50.940;4.034;2023-02-18T14:01:19;12.00;99.90
52267;DHT22;38223;50.940;4.034;2023-02-18T14:03:52;11.90;99.90
52267;DHT22;38223;50.940;4.034;2023-02-18T14:06:34;11.90;99.90
52267;DHT22;38223;50.940;4.034;2023-02-18T14:09:33;12.00;99.90
52267;DHT22;38223;50.940;4.034;2023-02-18T14:11:59;11.90;99.90
52267;DHT22;38223;50.940;4.034;2023-02-18T14:14:32;12.00;99.90
52267;DHT22;38223;50.940;4.034;2023-02-18T14:22:50;12.00;99.90
52267;DHT22;38223;50.940;4.034;2023-02-18T14:25:35;12.00;99.90
52267;DHT22;38223;50.940;4.034;2023-02-18T14:28:38;12.00;99.90
52267;DHT22;38223;50.940;4.034;2023-02-18T14:31:18;12.00;99.90
52267;DHT22;38223;50.940;4.034;2023-02-18T14:34:06;11.90;99.90
52267;DHT22;38223;50.940;4.034;2023-02-18T14:36:42;12.00;99.90
52267;DHT22;38223;50.940;4.034;2023-02-18T14:42:30;11.80;99.90
52267;DHT22;38223;50.940;4.034;2023-02-18T14:53:05;12.00;99.90
52267;DHT22;38223;50.940;4.034;2023-02-18T14:55:39;12.00;99.90
52267;DHT22;38223;50.940;4.034;2023-02-18T14:58:19;12.10;99.90
52267;DHT22;38223;50.940;4.034;2023-02-18T15:00:45;12.00;99.90
52267;DHT22;38223;50.940;4.034;2023-02-18T15:03:22;11.90;99.90
52267;DHT22;38223;50.940;4.034;2023-02-18T15:05:52;12.00;99.90
52267;DHT22;38223;50.940;4.034;2023-02-18T15:08:26;12.00;99.90
52267;DHT22;38223;50.940;4.034;2023-02-18T15:11:06;12.10;99.90
52267;DHT22;38223;50.940;4.034;2023-02-18T15:13:46;12.10;99.90
52267;DHT22;38223;50.940;4.034;2023-02-18T15:16:32;12.00;99.90
52267;DHT22;38223;50.940;4.034;2023-02-18T15:19:06;12.00;99.90
52267;DHT22;38223;50.940;4.034;2023-02-18T15:21:41;12.00;99.90
52267;DHT22;38223;50.940;4.034;2023-02-18T15:26:51;12.10;99.90
52267;DHT22;38223;50.940;4.034;2023-02-18T15:29:27;12.10;99.90
52267;DHT22;38223;50.940;4.034;2023-02-18T15:31:58;12.20;99.90
52267;DHT22;38223;50.940;4.034;2023-02-18T15:34:37;12.20;99.90
52267;DHT22;38223;50.940;4.034;2023-02-18T15:37:10;12.30;99.90
52267;DHT22;38223;50.940;4.034;2023-02-18T15:39:42;12.30;99.90
52267;DHT22;38223;50.940;4.034;2023-02-18T15:42:26;12.30;99.90
52267;DHT22;38223;50.940;4.034;2023-02-18T15:45:03;12.40;99.90
52267;DHT22;38223;50.940;4.034;2023-02-18T15:47:31;12.30;99.90
52267;DHT22;38223;50.940;4.034;2023-02-18T15:50:06;12.40;99.90
52267;DHT22;38223;50.940;4.034;2023-02-18T15:52:38;12.30;99.90
52267;DHT22;38223;50.940;4.034;2023-02-18T15:55:23;12.30;99.90
52267;DHT22;38223;50.940;4.034;2023-02-18T15:57:50;12.20;99.90
52267;DHT22;38223;50.940;4.034;2023-02-18T16:00:29;12.30;99.90
52267;DHT22;38223;50.940;4.034;2023-02-18T16:03:14;12.30;99.90
52267;DHT22;38223;50.940;4.034;2023-02-18T16:05:44;12.20;99.90
52267;DHT22;38223;50.940;4.034;2023-02-18T16:08:27;12.20;99.90
52267;DHT22;38223;50.940;4.034;2023-02-18T16:11:08;12.20;99.90
52267;DHT22;38223;50.940;4.034;2023-02-18T16:13:44;12.20;99.90
52267;DHT22;38223;50.940;4.034;2023-02-18T16:16:29;12.20;99.90
52267;DHT22;38223;50.940;4.034;2023-02-18T16:19:03;12.20;99.90
52267;DHT22;38223;50.940;4.034;2023-02-18T16:21:43;12.20;99.90
52267;DHT22;38223;50.940;4.034;2023-02-18T16:24:26;12.20;99.90
52267;DHT22;38223;50.940;4.034;2023-02-18T16:26:59;12.10;99.90
52267;DHT22;38223;50.940;4.034;2023-02-18T16:29:42;12.00;99.90
52267;DHT22;38223;50.940;4.034;2023-02-18T16:32:14;11.80;99.90
52267;DHT22;38223;50.940;4.034;2023-02-18T16:34:43;11.80;99.90
52267;DHT22;38223;50.940;4.034;2023-02-18T16:37:15;11.80;99.90
52267;DHT22;38223;50.940;4.034;2023-02-18T16:40:01;11.80;99.90
52267;DHT22;38223;50.940;4.034;2023-02-18T16:42:30;11.90;99.90
52267;DHT22;38223;50.940;4.034;2023-02-18T16:45:03;12.00;99.90
52267;DHT22;38223;50.940;4.034;2023-02-18T16:47:38;12.10;99.90
52267;DHT22;38223;50.940;4.034;2023-02-18T16:50:13;12.10;99.90
52267;DHT22;38223;50.940;4.034;2023-02-18T16:52:46;12.10;99.90
52267;DHT22;38223;50.940;4.034;2023-02-18T16:55:23;12.20;99.90
52267;DHT22;38223;50.940;4.034;2023-02-18T16:57:58;12.10;99.90
52267;DHT22;38223;50.940;4.034;2023-02-18T17:00:28;12.10;99.90
52267;DHT22;38223;50.940;4.034;2023-02-18T17:03:03;12.20;99.90
52267;DHT22;38223;50.940;4.034;2023-02-18T17:05:35;12.10;99.90
52267;DHT22;38223;50.940;4.034;2023-02-18T17:08:22;12.00;99.90
52267;DHT22;38223;50.940;4.034;2023-02-18T17:10:53;12.00;99.90
52267;DHT22;38223;50.940;4.034;2023-02-18T17:13:28;12.00;99.90
52267;DHT22;38223;50.940;4.034;2023-02-18T17:18:48;11.90;99.90
52267;DHT22;38223;50.940;4.034;2023-02-18T17:21:24;11.90;99.90
52267;DHT22;38223;50.940;4.034;2023-02-18T17:23:57;11.90;99.90
52267;DHT22;38223;50.940;4.034;2023-02-18T17:26:31;11.80;99.90
52267;DHT22;38223;50.940;4.034;2023-02-18T17:29:05;11.80;99.90
52267;DHT22;38223;50.940;4.034;2023-02-18T17:31:43;11.90;99.90
52267;DHT22;38223;50.940;4.034;2023-02-18T17:34:20;11.90;99.90
52267;DHT22;38223;50.940;4.034;2023-02-18T17:36:48;11.90;99.90
52267;DHT22;38223;50.940;4.034;2023-02-18T17:39:22;11.90;99.90
52267;DHT22;38223;50.940;4.034;2023-02-18T17:41:52;11.80;99.90
52267;DHT22;38223;50.940;4.034;2023-02-18T17:44:24;11.80;99.90
52267;DHT22;38223;50.940;4.034;2023-02-18T17:46:54;11.80;99.90
52267;DHT22;38223;50.940;4.034;2023-02-18T17:49:25;11.80;99.90
52267;DHT22;38223;50.940;4.034;2023-02-18T17:51:57;11.80;99.90
52267;DHT22;38223;50.940;4.034;2023-02-18T17:54:28;11.90;99.90
52267;DHT22;38223;50.940;4.034;2023-02-18T17:57:00;12.00;99.90
52267;DHT22;38223;50.940;4.034;2023-02-18T17:59:33;11.90;99.90
52267;DHT22;38223;50.940;4.034;2023-02-18T18:02:02;11.90;99.90
52267;DHT22;38223;50.940;4.034;2023-02-18T18:04:36;12.00;99.90
52267;DHT22;38223;50.940;4.034;2023-02-18T18:07:12;12.00;99.90
52267;DHT22;38223;50.940;4.034;2023-02-18T18:09:44;11.90;99.90
52267;DHT22;38223;50.940;4.034;2023-02-18T18:12:17;11.90;99.90
52267;DHT22;38223;50.940;4.034;2023-02-18T18:14:50;11.90;99.90
52267;DHT22;38223;50.940;4.034;2023-02-18T18:17:21;12.00;99.90